Time;durP1;ratioP1;P1;durP2;ratioP2;P2;SDS_P1;SDS_P2;PMS_P1;PMS_P2;Temp;Humidity;BMP_temperature;BMP_pressure;BME280_temperature;BME280_humidity;BME280_pressure;Samples;Min_cycle;Max_cycle;Signal;HPM_P1;HPM_P2
2023/12/05 00:00:52;;;;;;;16.73;10.75;;;;;;;3.60;100.00;99452.63;5027578;28;20428;-67
2023/12/05 00:03:17;;;;;;;19.33;11.25;;;;;;;3.62;100.00;99457.75;5056245;28;20046;-68
2023/12/05 00:09:55;;;;;;;19.55;12.05;;;;;;;3.64;100.00;99446.66;5023750;28;20053;-68
2023/12/05 00:12:21;;;;;;;18.25;11.98;;;;;;;3.66;100.00;99449.22;5027282;28;20033;-68
2023/12/05 00:14:49;;;;;;;17.83;11.38;;;;;;;3.67;100.00;99453.47;5024699;28;20641;-68
2023/12/05 00:20:15;;;;;;;19.35;12.02;;;;;;;3.68;100.00;99439.81;5003981;28;20030;-67
2023/12/05 00:22:46;;;;;;;18.35;11.45;;;;;;;3.71;100.00;99442.38;5040883;28;20071;-68
2023/12/05 00:25:14;;;;;;;23.02;12.65;;;;;;;3.70;100.00;99428.78;5058441;28;20526;-68
2023/12/05 00:28:32;;;;;;;18.65;11.60;;;;;;;3.71;100.00;99432.16;5055481;28;20068;-69
2023/12/05 00:34:47;;;;;;;20.25;12.60;;;;;;;3.71;100.00;99429.59;5023888;28;20032;-68
2023/12/05 00:37:38;;;;;;;19.38;12.60;;;;;;;3.72;100.00;99428.75;5027152;28;20404;-69
2023/12/05 00:40:28;;;;;;;21.88;13.65;;;;;;;3.71;100.00;99424.47;5029419;28;20382;-69
2023/12/05 00:46:24;;;;;;;18.83;11.10;;;;;;;3.75;100.00;99408.31;5015598;28;20625;-69
2023/12/05 00:49:02;;;;;;;20.13;11.75;;;;;;;3.76;100.00;99408.31;5034452;28;20033;-68
2023/12/05 00:58:23;;;;;;;20.15;11.88;;;;;;;3.80;100.00;99417.66;5024608;28;20113;-69
2023/12/05 01:23:16;;;;;;;25.17;13.90;;;;;;;3.79;100.00;99415.97;5024419;28;20088;-69
2023/12/05 01:25:41;;;;;;;20.63;13.25;;;;;;;3.79;100.00;99415.97;5060153;28;20033;-69
2023/12/05 02:05:06;;;;;;;21.55;13.68;;;;;;;3.89;100.00;99407.41;5043649;28;20124;-68
2023/12/05 02:27:42;;;;;;;16.98;11.20;;;;;;;3.93;100.00;99385.25;5025928;28;20036;-69
2023/12/05 02:30:14;;;;;;;20.95;12.13;;;;;;;3.93;100.00;99387.81;5026859;28;20038;-68
2023/12/05 02:32:40;;;;;;;17.65;11.52;;;;;;;3.94;100.00;99392.06;5026589;28;20509;-69
2023/12/05 02:35:06;;;;;;;18.60;11.35;;;;;;;3.93;100.00;99387.81;5059035;28;20124;-69
2023/12/05 02:37:47;;;;;;;17.45;11.65;;;;;;;3.94;100.00;99386.97;5026234;28;20064;-69
2023/12/05 02:40:29;;;;;;;18.38;11.95;;;;;;;3.94;100.00;99384.41;5031232;28;20443;-68
2023/12/05 02:42:56;;;;;;;17.10;11.02;;;;;;;3.97;100.00;99387.75;5027897;28;20036;-69
2023/12/05 02:45:28;;;;;;;17.88;11.52;;;;;;;3.99;100.00;99392.88;5028540;28;20060;-68
2023/12/05 02:47:55;;;;;;;17.42;11.07;;;;;;;4.06;100.00;99389.47;5026611;28;20034;-69
2023/12/05 02:50:21;;;;;;;16.35;10.88;;;;;;;4.10;100.00;99383.47;5028373;28;20061;-69
2023/12/05 02:52:46;;;;;;;17.70;10.93;;;;;;;4.10;100.00;99379.19;5023368;28;20146;-69
2023/12/05 02:55:12;;;;;;;17.67;11.52;;;;;;;4.10;100.00;99378.34;5054749;28;20077;-68
2023/12/05 02:57:37;;;;;;;18.63;12.35;;;;;;;4.12;100.00;99376.66;5028405;28;20308;-68
2023/12/05 03:00:07;;;;;;;18.45;11.65;;;;;;;4.18;100.00;99368.91;5026459;28;20100;-69
2023/12/05 03:02:32;;;;;;;15.98;10.25;;;;;;;4.22;100.00;99380.84;5059931;28;20041;-68
2023/12/05 03:04:58;;;;;;;17.00;11.02;;;;;;;4.25;100.00;99368.03;5026807;28;20496;-68
2023/12/05 03:07:23;;;;;;;14.65;10.05;;;;;;;4.28;100.00;99374.84;5033413;28;20071;-69
2023/12/05 03:09:48;;;;;;;15.73;9.50;;;;;;;4.31;100.00;99364.59;5030096;28;20064;-68
2023/12/05 03:12:14;;;;;;;17.30;11.05;;;;;;;4.35;100.00;99368.84;5027362;28;20069;-68
2023/12/05 03:14:39;;;;;;;16.40;9.80;;;;;;;4.38;100.00;99373.94;5025795;28;20044;-68
2023/12/05 03:17:05;;;;;;;12.88;8.90;;;;;;;4.39;100.00;99376.47;5058509;28;20037;-68
2023/12/05 03:19:30;;;;;;;17.58;10.15;;;;;;;4.40;100.00;99374.78;5026538;28;20025;-69
2023/12/05 03:21:55;;;;;;;15.02;9.35;;;;;;;4.42;100.00;99373.03;5023864;28;20068;-68
2023/12/05 03:24:21;;;;;;;12.70;8.13;;;;;;;4.44;100.00;99372.22;5023850;28;20412;-68
2023/12/05 03:26:46;;;;;;;15.50;9.32;;;;;;;4.50;100.00;99373.88;5057571;28;20041;-68
2023/12/05 03:29:12;;;;;;;12.40;8.43;;;;;;;4.52;100.00;99374.69;5029821;28;20109;-68
2023/12/05 03:31:39;;;;;;;13.35;8.52;;;;;;;4.54;100.00;99367.84;5062718;28;20029;-69
2023/12/05 03:34:05;;;;;;;12.70;8.95;;;;;;;4.58;100.00;99367.84;5057513;28;20713;-68
2023/12/05 03:36:31;;;;;;;12.80;8.90;;;;;;;4.61;100.00;99369.53;5042805;28;20060;-68
2023/12/05 03:38:56;;;;;;;12.00;8.65;;;;;;;4.63;100.00;99366.09;5025124;28;20124;-68
2023/12/05 03:41:22;;;;;;;11.65;8.50;;;;;;;4.65;100.00;99366.94;5053952;28;20037;-68
2023/12/05 03:43:48;;;;;;;13.82;8.82;;;;;;;4.66;100.00;99366.06;5023847;28;20504;-68
2023/12/05 03:46:13;;;;;;;12.88;8.75;;;;;;;4.70;100.00;99371.16;5028986;28;20112;-68
2023/12/05 03:48:38;;;;;;;12.65;8.30;;;;;;;4.71;100.00;99371.16;5028890;28;20091;-68
2023/12/05 03:51:04;;;;;;;12.40;8.55;;;;;;;4.73;100.00;99360.91;5026406;28;20033;-68
2023/12/05 03:53:30;;;;;;;13.63;9.25;;;;;;;4.74;100.00;99366.03;5022245;28;20084;-68
2023/12/05 03:55:55;;;;;;;13.15;8.00;;;;;;;4.77;100.00;99366.00;5060694;28;20463;-68
2023/12/05 03:58:21;;;;;;;13.50;9.20;;;;;;;4.77;100.00;99367.72;5060402;28;20026;-68
2023/12/05 04:00:46;;;;;;;11.25;8.10;;;;;;;4.80;100.00;99355.75;5030261;28;20089;-68
2023/12/05 04:03:12;;;;;;;13.77;8.55;;;;;;;4.82;100.00;99360.84;5026727;28;20025;-68
2023/12/05 04:05:38;;;;;;;12.18;8.45;;;;;;;4.81;100.00;99365.09;5056634;28;20041;-68
2023/12/05 04:08:04;;;;;;;13.63;8.75;;;;;;;4.84;100.00;99359.97;5027547;28;20045;-68
2023/12/05 04:10:30;;;;;;;12.85;8.88;;;;;;;4.86;100.00;99362.53;5059237;28;20082;-68
2023/12/05 04:12:55;;;;;;;13.93;9.02;;;;;;;4.88;100.00;99358.22;5059887;28;20029;-67
2023/12/05 04:15:21;;;;;;;12.68;8.13;;;;;;;4.92;100.00;99359.91;5030253;28;20424;-66
2023/12/05 04:17:47;;;;;;;12.15;8.45;;;;;;;4.94;100.00;99371.00;5033631;28;20045;-68
2023/12/05 04:20:12;;;;;;;12.32;8.07;;;;;;;4.95;100.00;99359.91;5033699;28;20036;-67
2023/12/05 04:22:38;;;;;;;11.18;7.85;;;;;;;4.96;100.00;99359.88;5029216;28;20502;-68
2023/12/05 04:25:04;;;;;;;12.98;7.88;;;;;;;4.97;100.00;99359.00;5044630;28;20435;-68
2023/12/05 04:27:29;;;;;;;11.52;8.15;;;;;;;4.98;100.00;99367.56;5030962;28;20029;-68
2023/12/05 04:29:55;;;;;;;11.40;7.88;;;;;;;5.01;100.00;99370.91;5026801;28;20037;-68
2023/12/05 04:32:20;;;;;;;11.55;8.13;;;;;;;5.01;100.00;99370.91;5028435;28;20029;-68
2023/12/05 04:34:47;;;;;;;11.38;8.20;;;;;;;5.04;100.00;99372.63;5060790;28;20041;-68
2023/12/05 04:37:12;;;;;;;12.02;7.63;;;;;;;5.06;100.00;99376.00;5028916;28;20053;-68
2023/12/05 04:39:38;;;;;;;11.70;8.60;;;;;;;5.07;100.00;99377.72;5024653;28;20548;-68
2023/12/05 04:42:04;;;;;;;11.65;8.88;;;;;;;5.07;100.00;99382.84;5029254;28;20503;-69
2023/12/05 04:44:30;;;;;;;12.05;8.57;;;;;;;5.10;100.00;99382.81;5022408;28;20144;-68
2023/12/05 04:46:57;;;;;;;10.85;7.85;;;;;;;5.13;100.00;99383.59;5024235;28;20152;-68
2023/12/05 04:49:23;;;;;;;13.20;8.15;;;;;;;5.14;100.00;99377.63;5028263;28;20025;-68
2023/12/05 04:51:48;;;;;;;10.85;7.70;;;;;;;5.16;100.00;99378.47;5023478;28;20049;-68
2023/12/05 04:54:13;;;;;;;11.55;8.13;;;;;;;5.15;100.00;99381.06;5031470;28;20132;-68
2023/12/05 04:56:39;;;;;;;11.65;7.75;;;;;;;5.17;100.00;99384.44;5024402;28;20068;-68
2023/12/05 04:59:04;;;;;;;12.80;8.02;;;;;;;5.17;100.00;99381.88;5025172;28;20045;-68
2023/12/05 05:01:30;;;;;;;10.95;7.13;;;;;;;5.16;100.00;99383.59;5025259;28;20610;-68
2023/12/05 05:03:55;;;;;;;12.02;8.10;;;;;;;5.17;100.00;99387.84;5029361;28;20053;-68
2023/12/05 05:06:21;;;;;;;11.02;8.32;;;;;;;5.21;100.00;99384.41;5025318;28;20116;-68
2023/12/05 05:08:46;;;;;;;11.55;8.07;;;;;;;5.23;100.00;99386.94;5006381;28;20202;-68
2023/12/05 05:11:12;;;;;;;11.48;7.32;;;;;;;5.19;100.00;99386.13;5037150;28;20076;-68
2023/12/05 05:13:37;;;;;;;12.13;7.93;;;;;;;5.17;100.00;99390.41;5027057;28;20041;-67
2023/12/05 05:16:06;;;;;;;11.65;7.57;;;;;;;5.18;100.00;99392.13;5022992;28;20179;-68
2023/12/05 05:18:31;;;;;;;11.35;7.97;;;;;;;5.18;100.00;99396.41;5024273;28;20037;-68
2023/12/05 05:20:56;;;;;;;11.43;8.43;;;;;;;5.21;100.00;99398.94;5022191;28;20090;-68
2023/12/05 05:23:22;;;;;;;10.27;7.55;;;;;;;5.22;100.00;99404.03;5020647;28;20516;-68
2023/12/05 05:25:47;;;;;;;10.95;7.28;;;;;;;5.24;100.00;99404.03;5023437;28;20040;-68
2023/12/05 05:28:13;;;;;;;11.35;7.28;;;;;;;5.28;100.00;99412.53;5032548;28;20120;-67
2023/12/05 05:30:38;;;;;;;12.73;7.60;;;;;;;5.35;100.00;99417.56;5029138;28;20055;-68
2023/12/05 05:33:04;;;;;;;11.82;6.53;;;;;;;5.41;100.00;99417.53;5031392;28;20037;-68
2023/12/05 05:35:29;;;;;;;10.73;7.22;;;;;;;5.42;100.00;99419.25;5054625;28;20037;-68
2023/12/05 05:37:54;;;;;;;10.23;6.88;;;;;;;5.43;100.00;99420.91;5023741;28;20045;-68
2023/12/05 05:40:20;;;;;;;9.30;6.80;;;;;;;5.47;100.00;99422.59;5024861;28;20567;-68
2023/12/05 05:42:45;;;;;;;10.25;6.45;;;;;;;5.50;100.00;99420.00;5023085;28;20033;-68
2023/12/05 05:45:12;;;;;;;9.98;6.78;;;;;;;5.56;100.00;99421.66;5023011;28;20108;-68
2023/12/05 05:47:37;;;;;;;10.32;6.93;;;;;;;5.57;100.00;99418.25;5022249;28;20061;-68
2023/12/05 05:50:03;;;;;;;12.52;7.68;;;;;;;5.62;100.00;99421.59;5026612;28;20116;-68
2023/12/05 05:52:29;;;;;;;9.10;6.10;;;;;;;5.60;100.00;99419.06;5025776;28;20531;-68
2023/12/05 05:54:54;;;;;;;8.55;6.35;;;;;;;5.60;100.00;99421.63;5025295;28;20053;-68
2023/12/05 05:57:19;;;;;;;10.07;6.68;;;;;;;5.60;100.00;99419.06;5054299;28;20042;-68
2023/12/05 05:59:45;;;;;;;7.95;6.15;;;;;;;5.59;100.00;99419.06;5020843;28;20432;-68
2023/12/05 06:02:14;;;;;;;8.77;6.32;;;;;;;5.57;100.00;99424.22;5055445;28;20389;-68
2023/12/05 06:04:42;;;;;;;9.15;5.68;;;;;;;5.58;100.00;99423.34;5027805;28;20033;-67
2023/12/05 06:07:08;;;;;;;9.07;5.65;;;;;;;5.61;100.00;99425.88;5022516;28;20037;-68
2023/12/05 06:09:35;;;;;;;8.73;5.68;;;;;;;5.58;100.00;99423.34;5024704;28;20432;-67
2023/12/05 06:12:02;;;;;;;8.57;5.70;;;;;;;5.59;100.00;99419.06;5072629;28;20025;-68
2023/12/05 06:14:28;;;;;;;8.98;5.82;;;;;;;5.53;100.00;99417.41;5036116;28;20639;-68
2023/12/05 06:16:53;;;;;;;7.88;5.35;;;;;;;5.52;100.00;99419.97;5028035;28;20237;-68
2023/12/05 06:19:19;;;;;;;8.63;5.95;;;;;;;5.50;100.00;99420.00;5037258;28;20057;-68
2023/12/05 06:21:44;;;;;;;10.45;6.30;;;;;;;5.46;100.00;99420.88;5023349;28;20405;-67
2023/12/05 06:24:11;;;;;;;9.10;6.05;;;;;;;5.41;100.00;99424.34;5024600;28;20097;-68
2023/12/05 06:26:37;;;;;;;9.82;6.05;;;;;;;5.44;100.00;99427.75;5026653;28;20033;-68
2023/12/05 06:29:05;;;;;;;8.05;5.65;;;;;;;5.41;100.00;99426.91;5024895;28;20726;-68
2023/12/05 06:31:30;;;;;;;7.00;5.18;;;;;;;5.36;100.00;99429.53;5027609;28;20543;-68
2023/12/05 06:33:56;;;;;;;10.63;5.75;;;;;;;5.30;100.00;99438.97;5023032;28;20124;-68
2023/12/05 06:36:21;;;;;;;8.80;5.88;;;;;;;5.26;100.00;99433.03;5054255;28;20128;-68
2023/12/05 06:38:47;;;;;;;13.50;6.72;;;;;;;5.23;100.00;99438.19;5023195;28;20052;-68
2023/12/05 06:41:12;;;;;;;8.68;6.15;;;;;;;5.22;100.00;99447.56;5026163;28;20527;-69
2023/12/05 06:43:37;;;;;;;7.85;5.78;;;;;;;5.17;100.00;99443.34;5029516;28;20039;-69
2023/12/05 06:46:03;;;;;;;8.45;5.80;;;;;;;5.23;100.00;99453.53;5054364;28;20036;-69
2023/12/05 06:48:28;;;;;;;9.23;6.05;;;;;;;5.25;100.00;99456.94;5043610;28;20525;-68
2023/12/05 06:50:54;;;;;;;10.98;6.45;;;;;;;5.31;100.00;99459.44;5023817;28;20053;-68
2023/12/05 06:53:19;;;;;;;9.80;6.30;;;;;;;5.42;100.00;99461.94;5057738;28;20029;-68
2023/12/05 06:55:47;;;;;;;8.63;5.97;;;;;;;5.50;100.00;99460.16;5019673;28;20030;-68
2023/12/05 06:58:12;;;;;;;8.15;5.50;;;;;;;5.56;100.00;99460.09;5055364;28;20712;-67
2023/12/05 07:00:38;;;;;;;10.50;6.07;;;;;;;5.64;100.00;99464.28;5022848;28;20042;-68
2023/12/05 07:03:03;;;;;;;8.82;5.80;;;;;;;5.72;100.00;99469.34;5021531;28;20041;-68
2023/12/05 07:05:29;;;;;;;11.82;5.97;;;;;;;5.75;100.00;99464.19;5054634;28;20037;-67
2023/12/05 07:07:54;;;;;;;6.30;5.05;;;;;;;5.79;100.00;99474.41;5007029;28;20061;-68
2023/12/05 07:10:19;;;;;;;8.27;5.97;;;;;;;5.83;100.00;99475.22;5025347;28;20102;-68
2023/12/05 07:12:45;;;;;;;9.48;5.75;;;;;;;5.87;100.00;99488.88;5009594;28;20064;-68
2023/12/05 07:15:10;;;;;;;7.15;5.07;;;;;;;5.90;100.00;99488.84;5023954;28;20535;-67
2023/12/05 07:17:37;;;;;;;8.77;5.45;;;;;;;5.90;100.00;99492.25;5028358;28;20408;-67
2023/12/05 07:20:03;;;;;;;7.40;4.82;;;;;;;5.92;100.00;99492.22;5027425;28;20476;-68
2023/12/05 07:22:28;;;;;;;7.05;4.57;;;;;;;5.96;100.00;99504.97;5044675;28;20057;-67
2023/12/05 07:24:54;;;;;;;7.68;5.07;;;;;;;5.99;100.00;99497.25;5025561;28;20034;-68
2023/12/05 07:27:19;;;;;;;6.10;4.00;;;;;;;6.01;100.00;99494.69;5023001;28;20133;-68
2023/12/05 07:29:45;;;;;;;7.07;4.57;;;;;;;6.04;100.00;99502.34;5024320;28;20073;-67
2023/12/05 07:32:11;;;;;;;6.55;4.47;;;;;;;6.08;100.00;99504.03;5003558;28;20029;-67
2023/12/05 07:34:36;;;;;;;7.68;4.57;;;;;;;6.10;100.00;99510.00;5020754;28;20025;-68
2023/12/05 07:37:03;;;;;;;8.15;5.10;;;;;;;6.12;100.00;99516.81;5024269;28;20519;-67
2023/12/05 07:39:28;;;;;;;6.93;4.55;;;;;;;6.14;100.00;99520.19;5027520;28;20033;-68
2023/12/05 07:41:54;;;;;;;6.65;4.32;;;;;;;6.15;100.00;99516.78;5029124;28;20060;-67
2023/12/05 07:44:19;;;;;;;6.40;4.15;;;;;;;6.19;100.00;99527.84;5057657;28;20396;-67
2023/12/05 07:46:45;;;;;;;6.20;3.88;;;;;;;6.22;100.00;99531.25;5049299;28;20100;-67
2023/12/05 07:49:11;;;;;;;6.38;3.85;;;;;;;6.27;100.00;99529.47;5029913;28;20049;-67
2023/12/05 07:51:37;;;;;;;7.30;4.15;;;;;;;6.32;100.00;99532.81;5032658;28;20033;-68
2023/12/05 07:54:05;;;;;;;6.53;4.55;;;;;;;6.37;100.00;99530.22;5030907;28;20493;-68
2023/12/05 07:56:30;;;;;;;6.57;4.15;;;;;;;6.41;100.00;99539.56;5030892;28;20076;-68
2023/12/05 07:58:56;;;;;;;6.35;4.10;;;;;;;6.45;100.00;99548.94;5033756;28;20045;-68
2023/12/05 08:01:21;;;;;;;6.97;4.05;;;;;;;6.48;100.00;99550.63;5031330;28;20364;-67
2023/12/05 08:03:47;;;;;;;6.05;3.63;;;;;;;6.50;100.00;99547.16;5028739;28;20491;-67
2023/12/05 08:06:12;;;;;;;8.73;3.75;;;;;;;6.54;100.00;99541.13;5025634;28;20041;-67
2023/12/05 08:08:37;;;;;;;5.35;3.85;;;;;;;6.59;100.00;99543.63;5060127;28;20044;-68
2023/12/05 08:11:05;;;;;;;6.30;3.42;;;;;;;6.64;100.00;99545.31;5028357;28;20099;-67
2023/12/05 08:13:31;;;;;;;6.78;3.55;;;;;;;6.69;100.00;99543.53;5026901;28;20030;-67
2023/12/05 08:15:56;;;;;;;6.80;3.60;;;;;;;6.74;100.00;99554.59;5027212;28;20044;-68
2023/12/05 08:18:21;;;;;;;4.53;3.03;;;;;;;6.78;100.00;99552.84;5031762;28;20412;-68
2023/12/05 08:20:47;;;;;;;6.18;3.58;;;;;;;6.81;100.00;99555.38;5025194;28;20523;-68
2023/12/05 08:23:12;;;;;;;5.82;3.17;;;;;;;6.82;100.00;99555.31;5026087;28;20040;-68
2023/12/05 08:25:38;;;;;;;4.70;3.25;;;;;;;6.83;100.00;99559.59;5021737;28;20029;-67
2023/12/05 08:28:03;;;;;;;3.53;2.65;;;;;;;6.83;100.00;99554.47;5025902;28;20512;-67
2023/12/05 08:30:29;;;;;;;4.53;2.80;;;;;;;6.84;100.00;99563.03;5022727;28;20049;-67
2023/12/05 08:32:57;;;;;;;4.35;2.85;;;;;;;6.84;100.00;99563.88;5024709;28;20053;-67
2023/12/05 08:35:23;;;;;;;4.72;2.83;;;;;;;6.83;100.00;99564.75;5026819;28;20041;-68
2023/12/05 08:37:48;;;;;;;5.10;3.33;;;;;;;6.86;100.00;99561.28;5025984;28;20035;-68
2023/12/05 08:40:14;;;;;;;3.67;2.70;;;;;;;6.86;100.00;99563.84;5062650;28;20029;-68
2023/12/05 08:42:42;;;;;;;7.22;3.20;;;;;;;6.88;100.00;99574.97;5030512;28;20035;-68
2023/12/05 08:45:10;;;;;;;4.20;2.83;;;;;;;6.89;100.00;99574.94;5025506;28;20033;-68
2023/12/05 08:47:36;;;;;;;3.10;2.30;;;;;;;6.92;100.00;99576.63;5055290;28;20585;-68
2023/12/05 08:50:02;;;;;;;4.32;2.45;;;;;;;6.94;100.00;99574.03;5021067;28;20045;-68
2023/12/05 08:52:28;;;;;;;18.58;4.32;;;;;;;6.96;100.00;99574.88;5030361;28;20476;-68
2023/12/05 08:54:53;;;;;;;11.25;3.38;;;;;;;6.98;100.00;99578.25;5034213;28;20033;-67
2023/12/05 08:57:18;;;;;;;4.50;2.50;;;;;;;6.99;100.00;99574.81;5022705;28;20064;-67
2023/12/05 08:59:44;;;;;;;7.22;2.70;;;;;;;7.03;100.00;99581.63;5024278;28;20397;-68
2023/12/05 09:02:10;;;;;;;3.35;2.05;;;;;;;7.04;100.00;99576.47;5039156;28;20698;-67
2023/12/05 09:04:37;;;;;;;3.03;2.58;;;;;;;7.07;100.00;99579.00;5024549;28;20021;-68
2023/12/05 09:07:02;;;;;;;3.70;2.50;;;;;;;7.08;100.00;99574.72;5058236;28;20064;-68
2023/12/05 09:09:28;;;;;;;7.72;2.60;;;;;;;7.10;100.00;99581.50;5024586;28;20038;-68
2023/12/05 09:11:53;;;;;;;5.43;2.67;;;;;;;7.11;100.00;99584.94;5021401;28;20044;-68
2023/12/05 09:14:18;;;;;;;3.10;2.50;;;;;;;7.10;100.00;99584.09;5027929;28;20040;-68
2023/12/05 09:16:44;;;;;;;3.90;2.70;;;;;;;7.12;100.00;99591.78;5030479;28;20041;-68
2023/12/05 09:19:09;;;;;;;3.00;2.10;;;;;;;7.13;100.00;99594.31;5028619;28;20021;-68
2023/12/05 09:21:35;;;;;;;4.32;2.28;;;;;;;7.15;100.00;99594.31;5029034;28;20042;-68
2023/12/05 09:24:00;;;;;;;4.85;2.10;;;;;;;7.18;100.00;99599.44;5024857;28;20057;-68
2023/12/05 09:26:26;;;;;;;3.90;2.10;;;;;;;7.19;100.00;99601.13;5026713;28;20087;-67
2023/12/05 09:28:51;;;;;;;3.55;2.35;;;;;;;7.23;100.00;99598.50;5025754;28;20076;-68
2023/12/05 09:31:17;;;;;;;5.00;2.13;;;;;;;7.25;100.00;99601.03;5062049;28;20631;-67
2023/12/05 09:33:42;;;;;;;3.90;2.70;;;;;;;7.26;100.00;99603.63;5057270;28;20037;-68
2023/12/05 10:00:11;;;;;;;4.22;2.10;;;;;;;7.52;100.00;99610.09;5019888;28;20048;-68
2023/12/05 10:02:40;;;;;;;3.60;2.22;;;;;;;7.53;100.00;99612.66;5048904;28;20112;-68
2023/12/05 10:05:11;;;;;;;3.33;1.70;;;;;;;7.57;100.00;99610.88;5023438;28;20129;-68
2023/12/05 10:07:37;;;;;;;4.43;2.10;;;;;;;7.64;100.00;99617.63;5044840;28;20136;-68
2023/12/05 10:10:04;;;;;;;5.35;2.00;;;;;;;7.68;100.00;99607.28;5010326;28;20037;-68
2023/12/05 10:12:31;;;;;;;2.80;1.50;;;;;;;7.71;100.00;99609.81;5023575;28;20029;-68
2023/12/05 10:14:57;;;;;;;1.65;1.33;;;;;;;7.74;100.00;99609.78;5054804;28;20053;-68
2023/12/05 10:17:50;;;;;;;4.53;1.40;;;;;;;7.79;100.00;99607.97;5052167;28;20726;-68
2023/12/05 10:20:39;;;;;;;2.00;1.25;;;;;;;7.81;100.00;99613.94;5022562;28;20053;-68
2023/12/05 10:23:05;;;;;;;3.22;1.60;;;;;;;7.84;100.00;99620.75;5024099;28;20452;-69
2023/12/05 10:25:30;;;;;;;3.15;1.55;;;;;;;7.81;100.00;99618.22;5026973;28;20025;-68
2023/12/05 10:28:01;;;;;;;2.47;1.58;;;;;;;7.81;100.00;99618.22;5056392;28;20049;-68
2023/12/05 10:30:34;;;;;;;2.17;1.40;;;;;;;7.78;100.00;99611.41;5060779;28;20041;-67
2023/12/05 10:33:09;;;;;;;2.22;1.15;;;;;;;7.79;100.00;99617.41;5015367;28;20042;-68
2023/12/05 10:35:35;;;;;;;2.40;1.38;;;;;;;7.80;100.00;99613.97;5025993;28;20034;-68
2023/12/05 10:38:08;;;;;;;1.85;1.25;;;;;;;7.84;100.00;99620.75;5022002;28;20670;-68
2023/12/05 10:40:57;;;;;;;2.22;1.27;;;;;;;7.86;100.00;99613.88;5057277;28;20657;-68
2023/12/05 10:43:24;;;;;;;4.35;2.05;;;;;;;7.86;100.00;99617.25;5021445;28;20052;-67
2023/12/05 10:45:50;;;;;;;2.15;1.30;;;;;;;7.89;100.00;99619.78;5020438;28;20497;-68
2023/12/05 10:48:18;;;;;;;5.10;1.48;;;;;;;7.93;100.00;99623.16;5025643;28;20056;-68
2023/12/05 10:50:54;;;;;;;2.80;1.73;;;;;;;7.98;100.00;99613.69;5023431;28;20165;-67
2023/12/05 10:53:41;;;;;;;4.38;1.38;;;;;;;8.02;100.00;99612.72;5023490;28;20037;-68
2023/12/05 10:56:14;;;;;;;3.60;2.30;;;;;;;8.11;100.00;99617.72;5022367;28;20049;-68
2023/12/05 10:58:41;;;;;;;4.72;1.98;;;;;;;8.19;100.00;99618.44;5020528;28;20068;-67
2023/12/05 11:01:11;;;;;;;3.40;1.60;;;;;;;8.20;100.00;99616.72;5022703;28;20454;-67
2023/12/05 11:03:38;;;;;;;2.00;1.55;;;;;;;8.26;100.00;99624.34;5027719;28;20041;-68
2023/12/05 11:06:04;;;;;;;3.20;1.20;;;;;;;8.33;100.00;99623.38;5026554;28;20036;-68
2023/12/05 11:08:30;;;;;;;3.95;1.25;;;;;;;8.35;100.00;99613.88;5056457;28;20042;-67
2023/12/05 11:10:56;;;;;;;3.13;1.20;;;;;;;8.37;100.00;99620.69;5024376;28;20037;-68
2023/12/05 11:13:22;;;;;;;1.50;1.10;;;;;;;8.39;100.00;99618.13;5028004;28;20026;-68
2023/12/05 11:15:51;;;;;;;3.47;1.40;;;;;;;8.38;100.00;99617.25;5057291;28;20044;-67
2023/12/05 11:18:35;;;;;;;2.17;1.35;;;;;;;8.43;100.00;99624.88;5028549;28;20040;-68
2023/12/05 11:21:27;;;;;;;2.45;1.23;;;;;;;8.41;100.00;99632.66;5025548;28;20056;-68
2023/12/05 11:24:30;;;;;;;1.08;0.80;;;;;;;8.39;100.00;99624.13;5036720;28;20037;-68
2023/12/05 11:27:22;;;;;;;2.95;0.90;;;;;;;8.38;100.00;99629.28;5029529;28;20124;-68
2023/12/05 11:29:51;;;;;;;1.42;0.80;;;;;;;8.36;100.00;99631.03;5065511;28;20033;-68
2023/12/05 11:32:22;;;;;;;1.80;0.98;;;;;;;8.30;100.00;99633.72;5057653;28;20459;-68
2023/12/05 11:35:16;;;;;;;2.42;0.98;;;;;;;8.24;100.00;99633.81;5023722;28;20024;-68
2023/12/05 11:38:02;;;;;;;1.10;0.63;;;;;;;8.25;100.00;99636.34;5028453;28;20029;-68
2023/12/05 11:40:28;;;;;;;1.75;0.60;;;;;;;8.22;100.00;99649.28;5018930;28;20594;-68
2023/12/05 11:43:06;;;;;;;2.15;0.70;;;;;;;8.17;100.00;99645.94;5011849;28;20045;-69
2023/12/05 11:45:34;;;;;;;0.77;0.65;;;;;;;8.21;100.00;99645.03;5001941;28;20121;-70
2023/12/05 11:48:01;;;;;;;1.85;1.20;;;;;;;8.13;100.00;99641.72;5008102;28;20539;-68
2023/12/05 11:50:38;;;;;;;2.03;1.10;;;;;;;8.13;100.00;99646.84;5007188;28;20448;-68
2023/12/05 11:53:05;;;;;;;3.10;1.00;;;;;;;8.09;100.00;99655.53;5008749;28;20038;-68
2023/12/05 11:55:30;;;;;;;2.40;0.90;;;;;;;8.00;100.00;99646.22;5036762;28;20662;-68
2023/12/05 11:57:56;;;;;;;2.03;1.33;;;;;;;7.92;100.00;99648.03;5008156;28;20038;-68
2023/12/05 12:00:21;;;;;;;2.53;1.60;;;;;;;7.92;100.00;99652.38;5005750;28;20049;-67
2023/12/05 12:02:56;;;;;;;2.42;0.70;;;;;;;7.86;100.00;99655.03;5011247;28;20073;-68
2023/12/05 12:05:22;;;;;;;3.55;1.35;;;;;;;7.85;100.00;99658.47;5040403;28;20038;-67
2023/12/05 12:07:58;;;;;;;2.05;1.10;;;;;;;7.83;100.00;99662.78;5040095;28;20401;-68
2023/12/05 12:10:26;;;;;;;1.08;0.80;;;;;;;7.81;100.00;99662.81;5007660;28;20076;-68
2023/12/05 12:12:54;;;;;;;1.48;1.08;;;;;;;7.81;100.00;99662.81;5010483;28;20117;-67
2023/12/05 12:15:21;;;;;;;1.90;1.00;;;;;;;7.86;100.00;99663.56;5034282;28;20038;-67
2023/12/05 12:17:46;;;;;;;0.82;0.70;;;;;;;7.92;100.00;99668.63;5007718;28;20048;-68
2023/12/05 12:20:16;;;;;;;2.72;0.73;;;;;;;7.93;100.00;99665.19;5009219;28;20285;-68
2023/12/05 12:22:45;;;;;;;1.75;1.00;;;;;;;7.97;100.00;99668.56;5008267;28;20080;-68
2023/12/05 12:25:11;;;;;;;1.60;1.10;;;;;;;8.01;100.00;99675.38;5022222;28;20056;-68
2023/12/05 12:27:38;;;;;;;3.33;1.10;;;;;;;7.96;100.00;99667.72;5007039;28;20544;-68
2023/12/05 12:30:09;;;;;;;2.55;0.93;;;;;;;8.00;100.00;99671.09;5020160;28;20440;-68
2023/12/05 12:32:36;;;;;;;2.33;1.23;;;;;;;8.01;100.00;99670.25;5039291;28;20038;-67
2023/12/05 12:35:02;;;;;;;2.80;1.27;;;;;;;7.98;100.00;99673.69;5006348;28;20042;-68
2023/12/05 12:37:29;;;;;;;5.18;1.38;;;;;;;7.95;100.00;99671.16;5009808;28;20044;-68
2023/12/05 12:39:54;;;;;;;3.40;1.10;;;;;;;8.02;100.00;99674.50;5037780;28;20040;-68
2023/12/05 12:42:19;;;;;;;2.55;1.23;;;;;;;8.05;100.00;99677.03;5010861;28;20038;-68
2023/12/05 12:44:46;;;;;;;1.70;1.10;;;;;;;8.01;100.00;99676.22;4994653;28;20053;-69
2023/12/05 12:47:13;;;;;;;1.63;1.17;;;;;;;8.00;100.00;99674.53;5012637;28;20045;-68
2023/12/05 12:49:38;;;;;;;1.75;0.75;;;;;;;7.90;100.00;99683.25;5009765;28;20028;-68
2023/12/05 12:52:04;;;;;;;1.30;0.70;;;;;;;7.89;100.00;99676.41;5040764;28;20026;-68
2023/12/05 12:54:33;;;;;;;1.25;0.70;;;;;;;7.89;100.00;99681.53;5009192;28;20608;-68
2023/12/05 12:56:59;;;;;;;1.58;0.60;;;;;;;7.75;100.00;99677.47;5012928;28;20042;-68
2023/12/05 12:59:24;;;;;;;1.20;0.68;;;;;;;7.76;100.00;99684.31;5009983;28;20041;-68
2023/12/05 13:01:50;;;;;;;1.00;0.70;;;;;;;7.70;100.00;99685.28;5037899;28;20046;-68
2023/12/05 13:04:16;;;;;;;1.25;0.60;;;;;;;7.69;100.00;99687.84;5001761;28;20457;-68
2023/12/05 13:06:47;;;;;;;0.80;0.50;;;;;;;7.57;100.00;99686.28;5010399;28;20121;-68
2023/12/05 13:09:19;;;;;;;7.93;2.58;;;;;;;7.51;100.00;99686.38;5009246;28;20034;-67
2023/12/05 13:11:47;;;;;;;0.43;0.43;;;;;;;7.51;100.00;99690.66;5007954;28;20119;-67
2023/12/05 13:14:14;;;;;;;1.70;1.25;;;;;;;7.56;100.00;99691.47;5003505;28;20034;-68
2023/12/05 13:16:41;;;;;;;2.33;0.65;;;;;;;7.54;100.00;99693.19;5009272;28;20337;-68
2023/12/05 13:19:38;;;;;;;0.80;0.68;;;;;;;7.48;100.00;99694.13;5006513;28;20022;-68
2023/12/05 13:22:03;;;;;;;1.02;0.60;;;;;;;7.36;100.00;99681.44;5039268;28;20033;-68
2023/12/05 13:24:29;;;;;;;2.25;0.90;;;;;;;7.30;100.00;99692.63;5007708;28;20436;-68
2023/12/05 13:26:54;;;;;;;2.25;0.63;;;;;;;7.27;100.00;99687.53;5006265;28;20132;-67
2023/12/05 13:29:20;;;;;;;1.33;0.80;;;;;;;7.21;100.00;99699.63;5005824;28;20034;-67
2023/12/05 13:31:45;;;;;;;2.60;0.70;;;;;;;7.17;100.00;99695.38;5006483;28;20034;-68
2023/12/05 13:34:11;;;;;;;6.10;1.08;;;;;;;7.11;100.00;99701.41;5008366;28;20037;-67
2023/12/05 13:36:37;;;;;;;0.60;0.50;;;;;;;7.10;100.00;99699.72;5005821;28;20506;-68